sensor_id;sensor_type;location;lat;lon;timestamp;P1;durP1;ratioP1;P2;durP2;ratioP2
58496;SDS011;44284;51.310;16.904;2023-04-01T00:00:27;15.98;;;10.95;;
58496;SDS011;44284;51.310;16.904;2023-04-01T00:02:53;15.95;;;10.18;;
58496;SDS011;44284;51.310;16.904;2023-04-01T00:05:19;17.58;;;7.85;;
58496;SDS011;44284;51.310;16.904;2023-04-01T00:07:46;12.55;;;7.53;;
58496;SDS011;44284;51.310;16.904;2023-04-01T00:10:12;11.60;;;5.68;;
58496;SDS011;44284;51.310;16.904;2023-04-01T00:12:39;11.18;;;5.95;;
58496;SDS011;44284;51.310;16.904;2023-04-01T00:15:05;10.70;;;6.55;;
58496;SDS011;44284;51.310;16.904;2023-04-01T00:17:32;14.65;;;6.60;;
58496;SDS011;44284;51.310;16.904;2023-04-01T00:19:59;12.65;;;7.00;;
58496;SDS011;44284;51.310;16.904;2023-04-01T00:22:25;11.85;;;6.45;;
58496;SDS011;44284;51.310;16.904;2023-04-01T00:24:52;10.52;;;6.60;;
58496;SDS011;44284;51.310;16.904;2023-04-01T00:27:18;11.07;;;5.88;;
58496;SDS011;44284;51.310;16.904;2023-04-01T00:29:45;8.82;;;4.88;;
58496;SDS011;44284;51.310;16.904;2023-04-01T00:32:13;9.60;;;4.93;;
58496;SDS011;44284;51.310;16.904;2023-04-01T00:34:39;11.50;;;5.15;;
58496;SDS011;44284;51.310;16.904;2023-04-01T00:37:05;8.85;;;5.70;;
58496;SDS011;44284;51.310;16.904;2023-04-01T00:39:32;8.82;;;5.53;;
58496;SDS011;44284;51.310;16.904;2023-04-01T00:41:58;9.13;;;5.40;;
58496;SDS011;44284;51.310;16.904;2023-04-01T00:44:26;9.60;;;5.72;;
58496;SDS011;44284;51.310;16.904;2023-04-01T00:46:53;10.02;;;6.10;;
58496;SDS011;44284;51.310;16.904;2023-04-01T00:49:20;8.93;;;5.43;;
58496;SDS011;44284;51.310;16.904;2023-04-01T00:51:48;11.85;;;5.45;;
58496;SDS011;44284;51.310;16.904;2023-04-01T00:54:16;10.18;;;4.80;;
58496;SDS011;44284;51.310;16.904;2023-04-01T00:56:47;10.80;;;5.00;;
58496;SDS011;44284;51.310;16.904;2023-04-01T00:59:16;8.95;;;4.70;;
58496;SDS011;44284;51.310;16.904;2023-04-01T01:01:44;9.00;;;4.80;;
58496;SDS011;44284;51.310;16.904;2023-04-01T01:04:21;9.68;;;4.55;;
58496;SDS011;44284;51.310;16.904;2023-04-01T01:09:25;9.13;;;4.25;;
58496;SDS011;44284;51.310;16.904;2023-04-01T01:11:56;7.47;;;4.05;;
58496;SDS011;44284;51.310;16.904;2023-04-01T01:17:10;9.13;;;4.88;;
58496;SDS011;44284;51.310;16.904;2023-04-01T01:19:45;49.20;;;33.60;;
58496;SDS011;44284;51.310;16.904;2023-04-01T01:27:10;30.60;;;12.85;;
58496;SDS011;44284;51.310;16.904;2023-04-01T01:32:16;10.43;;;5.90;;
58496;SDS011;44284;51.310;16.904;2023-04-01T01:35:02;12.35;;;6.57;;
58496;SDS011;44284;51.310;16.904;2023-04-01T01:37:28;9.00;;;6.22;;
58496;SDS011;44284;51.310;16.904;2023-04-01T01:39:57;10.82;;;5.07;;
58496;SDS011;44284;51.310;16.904;2023-04-01T01:42:24;8.23;;;4.80;;
58496;SDS011;44284;51.310;16.904;2023-04-01T01:44:51;8.13;;;4.53;;
58496;SDS011;44284;51.310;16.904;2023-04-01T01:47:18;8.90;;;4.10;;
58496;SDS011;44284;51.310;16.904;2023-04-01T01:49:44;7.82;;;4.07;;
58496;SDS011;44284;51.310;16.904;2023-04-01T01:52:12;9.98;;;4.95;;
58496;SDS011;44284;51.310;16.904;2023-04-01T02:00:05;9.98;;;4.78;;
58496;SDS011;44284;51.310;16.904;2023-04-01T02:02:38;11.35;;;4.88;;
58496;SDS011;44284;51.310;16.904;2023-04-01T02:05:05;7.65;;;5.05;;
58496;SDS011;44284;51.310;16.904;2023-04-01T02:07:32;11.15;;;4.85;;
58496;SDS011;44284;51.310;16.904;2023-04-01T02:09:59;12.25;;;5.47;;
58496;SDS011;44284;51.310;16.904;2023-04-01T02:12:25;13.75;;;5.15;;
58496;SDS011;44284;51.310;16.904;2023-04-01T02:17:19;12.45;;;5.25;;
58496;SDS011;44284;51.310;16.904;2023-04-01T02:22:13;12.80;;;5.85;;
58496;SDS011;44284;51.310;16.904;2023-04-01T02:24:40;12.73;;;5.93;;
58496;SDS011;44284;51.310;16.904;2023-04-01T02:27:09;11.95;;;6.35;;
58496;SDS011;44284;51.310;16.904;2023-04-01T02:29:35;15.95;;;6.55;;
58496;SDS011;44284;51.310;16.904;2023-04-01T02:32:01;17.50;;;7.78;;
58496;SDS011;44284;51.310;16.904;2023-04-01T02:34:28;16.48;;;7.70;;
58496;SDS011;44284;51.310;16.904;2023-04-01T02:36:55;15.45;;;7.88;;
58496;SDS011;44284;51.310;16.904;2023-04-01T02:39:21;14.88;;;7.78;;
58496;SDS011;44284;51.310;16.904;2023-04-01T02:41:47;13.05;;;7.72;;
58496;SDS011;44284;51.310;16.904;2023-04-01T02:44:14;16.90;;;9.02;;
58496;SDS011;44284;51.310;16.904;2023-04-01T02:46:41;16.80;;;8.48;;
58496;SDS011;44284;51.310;16.904;2023-04-01T02:49:07;12.95;;;8.27;;
58496;SDS011;44284;51.310;16.904;2023-04-01T02:51:33;12.55;;;7.97;;
58496;SDS011;44284;51.310;16.904;2023-04-01T02:53:59;12.35;;;6.93;;
58496;SDS011;44284;51.310;16.904;2023-04-01T02:56:25;13.82;;;7.07;;
58496;SDS011;44284;51.310;16.904;2023-04-01T02:58:52;12.40;;;7.13;;
58496;SDS011;44284;51.310;16.904;2023-04-01T03:01:18;14.07;;;7.18;;
58496;SDS011;44284;51.310;16.904;2023-04-01T03:03:44;12.32;;;7.30;;
58496;SDS011;44284;51.310;16.904;2023-04-01T03:06:11;15.40;;;7.32;;
58496;SDS011;44284;51.310;16.904;2023-04-01T03:08:38;11.82;;;7.18;;
58496;SDS011;44284;51.310;16.904;2023-04-01T03:11:04;14.90;;;7.90;;
58496;SDS011;44284;51.310;16.904;2023-04-01T03:13:31;14.38;;;7.38;;
58496;SDS011;44284;51.310;16.904;2023-04-01T03:15:57;16.60;;;7.03;;
58496;SDS011;44284;51.310;16.904;2023-04-01T03:18:23;14.13;;;6.07;;
58496;SDS011;44284;51.310;16.904;2023-04-01T03:20:49;11.98;;;5.35;;
58496;SDS011;44284;51.310;16.904;2023-04-01T03:23:15;12.20;;;5.35;;
58496;SDS011;44284;51.310;16.904;2023-04-01T03:25:46;10.30;;;4.70;;
58496;SDS011;44284;51.310;16.904;2023-04-01T03:28:12;10.73;;;5.65;;
58496;SDS011;44284;51.310;16.904;2023-04-01T03:30:38;11.35;;;6.35;;
58496;SDS011;44284;51.310;16.904;2023-04-01T03:33:05;17.38;;;9.43;;
58496;SDS011;44284;51.310;16.904;2023-04-01T03:35:31;12.82;;;8.05;;
58496;SDS011;44284;51.310;16.904;2023-04-01T03:37:57;16.02;;;8.23;;
58496;SDS011;44284;51.310;16.904;2023-04-01T03:40:23;14.35;;;7.30;;
58496;SDS011;44284;51.310;16.904;2023-04-01T03:42:51;12.10;;;6.50;;
58496;SDS011;44284;51.310;16.904;2023-04-01T03:45:17;12.73;;;6.40;;
58496;SDS011;44284;51.310;16.904;2023-04-01T03:47:43;11.30;;;5.10;;
58496;SDS011;44284;51.310;16.904;2023-04-01T03:50:10;10.45;;;5.68;;
58496;SDS011;44284;51.310;16.904;2023-04-01T03:52:36;10.93;;;5.82;;
58496;SDS011;44284;51.310;16.904;2023-04-01T03:55:02;10.52;;;4.90;;
58496;SDS011;44284;51.310;16.904;2023-04-01T03:57:30;10.43;;;5.85;;
58496;SDS011;44284;51.310;16.904;2023-04-01T03:59:56;9.82;;;5.40;;
58496;SDS011;44284;51.310;16.904;2023-04-01T04:02:22;11.25;;;5.72;;
58496;SDS011;44284;51.310;16.904;2023-04-01T04:04:48;12.15;;;5.80;;
58496;SDS011;44284;51.310;16.904;2023-04-01T04:07:15;12.10;;;6.05;;
58496;SDS011;44284;51.310;16.904;2023-04-01T04:09:41;14.00;;;6.93;;
58496;SDS011;44284;51.310;16.904;2023-04-01T04:12:07;12.60;;;7.57;;
58496;SDS011;44284;51.310;16.904;2023-04-01T04:14:33;10.73;;;6.70;;
58496;SDS011;44284;51.310;16.904;2023-04-01T04:16:59;11.82;;;7.18;;
58496;SDS011;44284;51.310;16.904;2023-04-01T04:19:25;16.67;;;7.65;;
58496;SDS011;44284;51.310;16.904;2023-04-01T04:21:51;11.30;;;7.47;;
58496;SDS011;44284;51.310;16.904;2023-04-01T04:24:17;12.35;;;6.95;;
58496;SDS011;44284;51.310;16.904;2023-04-01T04:26:43;15.07;;;9.25;;
58496;SDS011;44284;51.310;16.904;2023-04-01T04:29:09;12.82;;;8.13;;
58496;SDS011;44284;51.310;16.904;2023-04-01T04:31:35;12.95;;;7.82;;
58496;SDS011;44284;51.310;16.904;2023-04-01T04:34:01;14.35;;;7.93;;
58496;SDS011;44284;51.310;16.904;2023-04-01T04:36:27;15.38;;;9.02;;
58496;SDS011;44284;51.310;16.904;2023-04-01T04:38:53;13.25;;;8.75;;
58496;SDS011;44284;51.310;16.904;2023-04-01T04:41:19;16.77;;;9.10;;
58496;SDS011;44284;51.310;16.904;2023-04-01T04:43:50;15.68;;;10.75;;
58496;SDS011;44284;51.310;16.904;2023-04-01T04:46:17;19.45;;;10.60;;
58496;SDS011;44284;51.310;16.904;2023-04-01T04:48:43;15.60;;;10.73;;
58496;SDS011;44284;51.310;16.904;2023-04-01T04:51:12;20.90;;;13.15;;
58496;SDS011;44284;51.310;16.904;2023-04-01T04:53:39;19.08;;;12.43;;
58496;SDS011;44284;51.310;16.904;2023-04-01T04:56:05;21.40;;;13.73;;
58496;SDS011;44284;51.310;16.904;2023-04-01T04:58:31;22.38;;;13.77;;
58496;SDS011;44284;51.310;16.904;2023-04-01T05:00:58;20.45;;;13.20;;
58496;SDS011;44284;51.310;16.904;2023-04-01T05:03:24;19.92;;;12.43;;
58496;SDS011;44284;51.310;16.904;2023-04-01T05:05:51;19.02;;;12.98;;
58496;SDS011;44284;51.310;16.904;2023-04-01T05:08:18;21.55;;;12.73;;
58496;SDS011;44284;51.310;16.904;2023-04-01T05:10:44;19.40;;;13.48;;
58496;SDS011;44284;51.310;16.904;2023-04-01T05:13:10;22.63;;;13.07;;
58496;SDS011;44284;51.310;16.904;2023-04-01T05:15:36;17.92;;;12.15;;
58496;SDS011;44284;51.310;16.904;2023-04-01T05:18:02;18.17;;;12.40;;
58496;SDS011;44284;51.310;16.904;2023-04-01T05:20:28;18.92;;;12.20;;
58496;SDS011;44284;51.310;16.904;2023-04-01T05:22:58;17.90;;;11.48;;
58496;SDS011;44284;51.310;16.904;2023-04-01T05:25:24;19.35;;;12.07;;
58496;SDS011;44284;51.310;16.904;2023-04-01T05:27:50;39.85;;;29.50;;
58496;SDS011;44284;51.310;16.904;2023-04-01T05:30:16;22.75;;;14.60;;
58496;SDS011;44284;51.310;16.904;2023-04-01T05:32:42;21.27;;;15.60;;
58496;SDS011;44284;51.310;16.904;2023-04-01T05:35:09;21.88;;;14.63;;
58496;SDS011;44284;51.310;16.904;2023-04-01T05:37:35;15.43;;;9.73;;
58496;SDS011;44284;51.310;16.904;2023-04-01T05:40:02;49.72;;;34.58;;
58496;SDS011;44284;51.310;16.904;2023-04-01T05:42:28;32.08;;;20.98;;
58496;SDS011;44284;51.310;16.904;2023-04-01T05:44:54;17.00;;;11.57;;
58496;SDS011;44284;51.310;16.904;2023-04-01T05:47:21;27.52;;;14.27;;
58496;SDS011;44284;51.310;16.904;2023-04-01T05:49:47;24.98;;;13.20;;
58496;SDS011;44284;51.310;16.904;2023-04-01T05:52:13;18.45;;;11.25;;
58496;SDS011;44284;51.310;16.904;2023-04-01T05:54:39;16.33;;;8.90;;
58496;SDS011;44284;51.310;16.904;2023-04-01T05:57:05;20.00;;;11.23;;
58496;SDS011;44284;51.310;16.904;2023-04-01T05:59:31;19.35;;;10.30;;
58496;SDS011;44284;51.310;16.904;2023-04-01T06:01:59;18.67;;;10.02;;
58496;SDS011;44284;51.310;16.904;2023-04-01T06:04:26;22.13;;;12.75;;
58496;SDS011;44284;51.310;16.904;2023-04-01T06:06:55;15.32;;;9.60;;
58496;SDS011;44284;51.310;16.904;2023-04-01T06:09:24;13.45;;;9.32;;
58496;SDS011;44284;51.310;16.904;2023-04-01T06:22:22;83.57;;;33.20;;
58496;SDS011;44284;51.310;16.904;2023-04-01T06:35:15;37.90;;;19.02;;
58496;SDS011;44284;51.310;16.904;2023-04-01T06:45:55;27.08;;;13.77;;
58496;SDS011;44284;51.310;16.904;2023-04-01T06:51:14;39.67;;;16.73;;
58496;SDS011;44284;51.310;16.904;2023-04-01T06:53:53;39.70;;;16.50;;
58496;SDS011;44284;51.310;16.904;2023-04-01T06:56:20;33.90;;;15.50;;
58496;SDS011;44284;51.310;16.904;2023-04-01T07:04:14;30.63;;;14.25;;
58496;SDS011;44284;51.310;16.904;2023-04-01T07:06:44;27.90;;;12.00;;
58496;SDS011;44284;51.310;16.904;2023-04-01T07:09:22;21.63;;;10.40;;
58496;SDS011;44284;51.310;16.904;2023-04-01T07:11:50;15.95;;;9.05;;
58496;SDS011;44284;51.310;16.904;2023-04-01T07:14:33;21.80;;;11.07;;
58496;SDS011;44284;51.310;16.904;2023-04-01T07:17:04;27.17;;;11.52;;
58496;SDS011;44284;51.310;16.904;2023-04-01T07:22:02;23.63;;;10.82;;
58496;SDS011;44284;51.310;16.904;2023-04-01T07:24:47;20.52;;;10.35;;
58496;SDS011;44284;51.310;16.904;2023-04-01T07:27:14;13.00;;;7.20;;
58496;SDS011;44284;51.310;16.904;2023-04-01T07:29:40;16.55;;;9.32;;
58496;SDS011;44284;51.310;16.904;2023-04-01T07:40:04;20.00;;;10.25;;
58496;SDS011;44284;51.310;16.904;2023-04-01T07:42:38;25.27;;;11.35;;
58496;SDS011;44284;51.310;16.904;2023-04-01T07:50:46;14.10;;;8.43;;
58496;SDS011;44284;51.310;16.904;2023-04-01T07:55:46;15.90;;;8.75;;
58496;SDS011;44284;51.310;16.904;2023-04-01T07:58:17;17.85;;;9.48;;
58496;SDS011;44284;51.310;16.904;2023-04-01T08:06:27;15.25;;;8.43;;
58496;SDS011;44284;51.310;16.904;2023-04-01T08:11:41;18.40;;;11.48;;
58496;SDS011;44284;51.310;16.904;2023-04-01T08:22:22;18.98;;;10.73;;
58496;SDS011;44284;51.310;16.904;2023-04-01T08:24:49;22.27;;;12.05;;
58496;SDS011;44284;51.310;16.904;2023-04-01T08:27:21;13.13;;;8.77;;
58496;SDS011;44284;51.310;16.904;2023-04-01T08:32:34;12.02;;;6.97;;
58496;SDS011;44284;51.310;16.904;2023-04-01T08:35:14;13.15;;;8.13;;
58496;SDS011;44284;51.310;16.904;2023-04-01T08:37:42;9.57;;;6.28;;
58496;SDS011;44284;51.310;16.904;2023-04-01T09:01:17;10.30;;;6.72;;
58496;SDS011;44284;51.310;16.904;2023-04-01T09:14:26;12.93;;;8.48;;
58496;SDS011;44284;51.310;16.904;2023-04-01T09:24:56;9.60;;;6.85;;
58496;SDS011;44284;51.310;16.904;2023-04-01T09:37:46;13.60;;;7.85;;
58496;SDS011;44284;51.310;16.904;2023-04-01T09:50:32;12.32;;;7.32;;
58496;SDS011;44284;51.310;16.904;2023-04-01T09:58:16;10.02;;;6.07;;
58496;SDS011;44284;51.310;16.904;2023-04-01T10:24:41;10.77;;;7.47;;
58496;SDS011;44284;51.310;16.904;2023-04-01T10:32:12;10.48;;;7.18;;
58496;SDS011;44284;51.310;16.904;2023-04-01T10:58:36;10.95;;;6.90;;
58496;SDS011;44284;51.310;16.904;2023-04-01T11:09:03;8.25;;;4.65;;
58496;SDS011;44284;51.310;16.904;2023-04-01T11:32:21;5.72;;;3.40;;
58496;SDS011;44284;51.310;16.904;2023-04-01T11:34:55;7.50;;;3.95;;
58496;SDS011;44284;51.310;16.904;2023-04-01T11:39:59;5.65;;;3.67;;
58496;SDS011;44284;51.310;16.904;2023-04-01T11:45:00;7.78;;;4.07;;
58496;SDS011;44284;51.310;16.904;2023-04-01T11:52:51;6.75;;;3.88;;
58496;SDS011;44284;51.310;16.904;2023-04-01T12:03:14;8.07;;;4.72;;
58496;SDS011;44284;51.310;16.904;2023-04-01T12:11:04;7.85;;;4.53;;
58496;SDS011;44284;51.310;16.904;2023-04-01T12:13:36;7.38;;;4.45;;
58496;SDS011;44284;51.310;16.904;2023-04-01T12:21:26;10.02;;;5.95;;
58496;SDS011;44284;51.310;16.904;2023-04-01T12:29:11;9.65;;;6.35;;
58496;SDS011;44284;51.310;16.904;2023-04-01T12:31:47;8.68;;;6.18;;
58496;SDS011;44284;51.310;16.904;2023-04-01T12:39:47;11.65;;;7.97;;
58496;SDS011;44284;51.310;16.904;2023-04-01T12:47:40;9.32;;;6.75;;
58496;SDS011;44284;51.310;16.904;2023-04-01T12:52:45;9.43;;;6.53;;
58496;SDS011;44284;51.310;16.904;2023-04-01T13:05:24;7.63;;;4.72;;
58496;SDS011;44284;51.310;16.904;2023-04-01T13:15:32;7.95;;;4.75;;
58496;SDS011;44284;51.310;16.904;2023-04-01T13:18:51;7.28;;;4.30;;
58496;SDS011;44284;51.310;16.904;2023-04-01T13:33:41;5.32;;;3.03;;
58496;SDS011;44284;51.310;16.904;2023-04-01T13:36:16;5.25;;;3.03;;
58496;SDS011;44284;51.310;16.904;2023-04-01T13:38:53;4.95;;;3.40;;
58496;SDS011;44284;51.310;16.904;2023-04-01T13:56:34;9.82;;;5.65;;
58496;SDS011;44284;51.310;16.904;2023-04-01T14:10:05;6.70;;;4.38;;
58496;SDS011;44284;51.310;16.904;2023-04-01T14:12:40;6.15;;;4.20;;
58496;SDS011;44284;51.310;16.904;2023-04-01T14:17:59;11.38;;;6.43;;
58496;SDS011;44284;51.310;16.904;2023-04-01T14:20:38;9.82;;;6.05;;
58496;SDS011;44284;51.310;16.904;2023-04-01T14:51:53;12.93;;;7.75;;
58496;SDS011;44284;51.310;16.904;2023-04-01T14:54:21;11.93;;;8.13;;
58496;SDS011;44284;51.310;16.904;2023-04-01T14:57:03;11.73;;;8.05;;
58496;SDS011;44284;51.310;16.904;2023-04-01T14:59:31;9.80;;;6.63;;
58496;SDS011;44284;51.310;16.904;2023-04-01T15:02:00;12.77;;;8.07;;
58496;SDS011;44284;51.310;16.904;2023-04-01T15:04:37;11.10;;;6.60;;
58496;SDS011;44284;51.310;16.904;2023-04-01T15:07:15;14.60;;;10.63;;
58496;SDS011;44284;51.310;16.904;2023-04-01T15:20:32;10.40;;;6.85;;
58496;SDS011;44284;51.310;16.904;2023-04-01T15:30:48;10.07;;;6.38;;
58496;SDS011;44284;51.310;16.904;2023-04-01T15:36:50;10.27;;;6.82;;
58496;SDS011;44284;51.310;16.904;2023-04-01T15:38:50;12.00;;;7.60;;
58496;SDS011;44284;51.310;16.904;2023-04-01T15:43:50;17.05;;;12.18;;
58496;SDS011;44284;51.310;16.904;2023-04-01T15:48:54;13.23;;;8.80;;
58496;SDS011;44284;51.310;16.904;2023-04-01T15:54:04;13.25;;;8.98;;
58496;SDS011;44284;51.310;16.904;2023-04-01T16:02:31;14.10;;;9.25;;
58496;SDS011;44284;51.310;16.904;2023-04-01T16:10:36;14.43;;;9.63;;
58496;SDS011;44284;51.310;16.904;2023-04-01T16:23:20;15.48;;;9.20;;
58496;SDS011;44284;51.310;16.904;2023-04-01T16:25:57;17.02;;;10.07;;
58496;SDS011;44284;51.310;16.904;2023-04-01T16:28:35;14.57;;;10.10;;
58496;SDS011;44284;51.310;16.904;2023-04-01T16:31:16;17.60;;;11.07;;
58496;SDS011;44284;51.310;16.904;2023-04-01T16:33:57;17.10;;;10.57;;
58496;SDS011;44284;51.310;16.904;2023-04-01T16:36:26;17.73;;;10.77;;
58496;SDS011;44284;51.310;16.904;2023-04-01T16:39:01;19.83;;;11.95;;
58496;SDS011;44284;51.310;16.904;2023-04-01T16:41:31;17.45;;;11.57;;
58496;SDS011;44284;51.310;16.904;2023-04-01T16:46:40;22.33;;;13.32;;
58496;SDS011;44284;51.310;16.904;2023-04-01T17:00:14;40.33;;;21.25;;
58496;SDS011;44284;51.310;16.904;2023-04-01T17:02:28;36.33;;;21.33;;
58496;SDS011;44284;51.310;16.904;2023-04-01T17:05:06;45.75;;;24.95;;
58496;SDS011;44284;51.310;16.904;2023-04-01T17:13:39;54.17;;;29.38;;
58496;SDS011;44284;51.310;16.904;2023-04-01T17:23:50;53.90;;;28.13;;
58496;SDS011;44284;51.310;16.904;2023-04-01T17:31:41;60.63;;;31.35;;
58496;SDS011;44284;51.310;16.904;2023-04-01T17:45:24;64.78;;;34.30;;
58496;SDS011;44284;51.310;16.904;2023-04-01T17:50:20;58.80;;;31.95;;
58496;SDS011;44284;51.310;16.904;2023-04-01T17:52:51;58.60;;;31.25;;
58496;SDS011;44284;51.310;16.904;2023-04-01T17:58:17;59.30;;;33.28;;
58496;SDS011;44284;51.310;16.904;2023-04-01T18:00:51;61.90;;;32.30;;
58496;SDS011;44284;51.310;16.904;2023-04-01T18:03:45;61.33;;;32.50;;
58496;SDS011;44284;51.310;16.904;2023-04-01T18:06:36;67.88;;;34.42;;
58496;SDS011;44284;51.310;16.904;2023-04-01T18:16:51;63.58;;;33.97;;
58496;SDS011;44284;51.310;16.904;2023-04-01T18:22:19;69.82;;;35.47;;
58496;SDS011;44284;51.310;16.904;2023-04-01T18:24:54;58.33;;;30.35;;
58496;SDS011;44284;51.310;16.904;2023-04-01T18:27:23;58.42;;;30.38;;
58496;SDS011;44284;51.310;16.904;2023-04-01T18:32:37;68.50;;;35.63;;
58496;SDS011;44284;51.310;16.904;2023-04-01T18:37:55;59.43;;;31.57;;
58496;SDS011;44284;51.310;16.904;2023-04-01T18:40:26;61.90;;;32.28;;
58496;SDS011;44284;51.310;16.904;2023-04-01T18:47:57;50.72;;;26.33;;
58496;SDS011;44284;51.310;16.904;2023-04-01T18:50:47;49.67;;;27.05;;
58496;SDS011;44284;51.310;16.904;2023-04-01T18:53:28;51.45;;;26.25;;
58496;SDS011;44284;51.310;16.904;2023-04-01T18:56:00;56.92;;;28.77;;
58496;SDS011;44284;51.310;16.904;2023-04-01T18:58:35;54.65;;;28.30;;
58496;SDS011;44284;51.310;16.904;2023-04-01T19:03:31;53.38;;;28.80;;
58496;SDS011;44284;51.310;16.904;2023-04-01T19:05:59;57.92;;;29.35;;
58496;SDS011;44284;51.310;16.904;2023-04-01T19:08:34;54.03;;;29.48;;
58496;SDS011;44284;51.310;16.904;2023-04-01T19:21:18;48.42;;;25.75;;
58496;SDS011;44284;51.310;16.904;2023-04-01T19:26:11;51.50;;;26.42;;
58496;SDS011;44284;51.310;16.904;2023-04-01T19:31:16;53.70;;;27.02;;
58496;SDS011;44284;51.310;16.904;2023-04-01T19:43:54;53.53;;;29.75;;
58496;SDS011;44284;51.310;16.904;2023-04-01T19:46:25;57.53;;;29.52;;
58496;SDS011;44284;51.310;16.904;2023-04-01T19:49:09;59.22;;;30.15;;
58496;SDS011;44284;51.310;16.904;2023-04-01T19:56:39;54.35;;;29.10;;
58496;SDS011;44284;51.310;16.904;2023-04-01T20:04:08;62.92;;;31.38;;
58496;SDS011;44284;51.310;16.904;2023-04-01T20:06:44;57.42;;;29.58;;
58496;SDS011;44284;51.310;16.904;2023-04-01T20:14:26;59.03;;;31.27;;
58496;SDS011;44284;51.310;16.904;2023-04-01T20:22:19;58.03;;;32.13;;
58496;SDS011;44284;51.310;16.904;2023-04-01T20:24:47;59.95;;;31.40;;
58496;SDS011;44284;51.310;16.904;2023-04-01T20:45:48;61.25;;;30.80;;
58496;SDS011;44284;51.310;16.904;2023-04-01T20:50:53;55.90;;;31.05;;
58496;SDS011;44284;51.310;16.904;2023-04-01T20:53:28;56.05;;;29.63;;
58496;SDS011;44284;51.310;16.904;2023-04-01T21:06:31;57.33;;;30.60;;
58496;SDS011;44284;51.310;16.904;2023-04-01T21:09:11;52.22;;;29.02;;
58496;SDS011;44284;51.310;16.904;2023-04-01T21:11:46;53.08;;;29.30;;
58496;SDS011;44284;51.310;16.904;2023-04-01T21:27:01;53.80;;;29.58;;
58496;SDS011;44284;51.310;16.904;2023-04-01T21:34:40;54.33;;;29.30;;
58496;SDS011;44284;51.310;16.904;2023-04-01T21:40:02;53.90;;;29.20;;
58496;SDS011;44284;51.310;16.904;2023-04-01T21:48:12;51.50;;;25.33;;
58496;SDS011;44284;51.310;16.904;2023-04-01T21:50:52;52.53;;;27.70;;
58496;SDS011;44284;51.310;16.904;2023-04-01T22:06:47;46.53;;;25.63;;
58496;SDS011;44284;51.310;16.904;2023-04-01T22:11:46;45.95;;;25.15;;
58496;SDS011;44284;51.310;16.904;2023-04-01T22:16:48;51.85;;;26.05;;
58496;SDS011;44284;51.310;16.904;2023-04-01T22:19:19;48.13;;;25.02;;
58496;SDS011;44284;51.310;16.904;2023-04-01T22:21:50;46.95;;;25.60;;
58496;SDS011;44284;51.310;16.904;2023-04-01T22:27:00;45.55;;;24.73;;
58496;SDS011;44284;51.310;16.904;2023-04-01T22:29:31;41.67;;;22.17;;
58496;SDS011;44284;51.310;16.904;2023-04-01T22:32:11;39.35;;;20.80;;
58496;SDS011;44284;51.310;16.904;2023-04-01T22:37:26;35.92;;;20.95;;
58496;SDS011;44284;51.310;16.904;2023-04-01T22:40:01;41.55;;;23.15;;
58496;SDS011;44284;51.310;16.904;2023-04-01T22:50:19;37.60;;;21.70;;
58496;SDS011;44284;51.310;16.904;2023-04-01T22:52:49;37.35;;;21.88;;
58496;SDS011;44284;51.310;16.904;2023-04-01T22:55:25;37.25;;;20.65;;
58496;SDS011;44284;51.310;16.904;2023-04-01T22:57:58;34.13;;;19.30;;
58496;SDS011;44284;51.310;16.904;2023-04-01T23:00:26;34.10;;;19.75;;
58496;SDS011;44284;51.310;16.904;2023-04-01T23:05:36;34.70;;;19.02;;
58496;SDS011;44284;51.310;16.904;2023-04-01T23:10:51;35.83;;;20.27;;
58496;SDS011;44284;51.310;16.904;2023-04-01T23:13:20;37.05;;;21.10;;
58496;SDS011;44284;51.310;16.904;2023-04-01T23:15:48;35.97;;;20.30;;
58496;SDS011;44284;51.310;16.904;2023-04-01T23:18:23;35.40;;;20.80;;
58496;SDS011;44284;51.310;16.904;2023-04-01T23:23:20;36.95;;;21.17;;
58496;SDS011;44284;51.310;16.904;2023-04-01T23:26:02;34.70;;;19.98;;
58496;SDS011;44284;51.310;16.904;2023-04-01T23:31:02;37.88;;;19.85;;
58496;SDS011;44284;51.310;16.904;2023-04-01T23:33:28;36.05;;;21.20;;
58496;SDS011;44284;51.310;16.904;2023-04-01T23:35:59;33.50;;;20.08;;
58496;SDS011;44284;51.310;16.904;2023-04-01T23:38:34;35.90;;;21.50;;
58496;SDS011;44284;51.310;16.904;2023-04-01T23:41:01;38.47;;;22.77;;
58496;SDS011;44284;51.310;16.904;2023-04-01T23:43:28;37.42;;;20.30;;
58496;SDS011;44284;51.310;16.904;2023-04-01T23:45:56;40.47;;;22.92;;
58496;SDS011;44284;51.310;16.904;2023-04-01T23:48:30;42.63;;;23.13;;
58496;SDS011;44284;51.310;16.904;2023-04-01T23:50:58;40.45;;;23.80;;
58496;SDS011;44284;51.310;16.904;2023-04-01T23:53:25;45.40;;;25.00;;
58496;SDS011;44284;51.310;16.904;2023-04-01T23:55:52;47.70;;;26.02;;
58496;SDS011;44284;51.310;16.904;2023-04-01T23:58:40;43.90;;;22.48;;
